Etusivu
METAR-TAF:

METAR-TAF

Lentoasemat :

Safford, Arizona, Yhdysvallat

Leveyspiiri: 32-51-26N, Pituuspiiri: 109-38-08W, korkeus merenpinnasta: 968 m

Tämänhetkinen sää

Tämä raportti tehtiin 8 minuuttia sitten, kello 08.51 UTC
Tuuli 6 kn luoteesta
Lämpötila 27°C
Kosteus 54%
Ilmanpaine 1015 hPa
Näkyvyys: 16.1 km
selkeää

METAR: KSAD 200851Z AUTO 32006KT 10SM CLR 27/17 A2998 RMK AO2 SLP084 T02670172 $

Aika: 01:59 (08:59 UTC)


TAF: puuttuu

Säähavainnot ja -ennusteet yli 4000 lentoasemalta (METAR- ja TAF-raportit).

Käytössä olevat sääasemat on merkitty karttaan keltaisilla ja punaisilla pisteillä.

Aseta hiiri pisteen päälle nähdäksesi sääaseman nimen.

Klikkaa sitten nähdäksesi säähavainnot ja -ennusteet.

Kartan vaihtaminen: klikkaa mustalla rastilla varustettuja vihreitä pisteitä, niin voit zoomata sisään; viivalla varustettua vihreää pistettä, niin voit zoomata ulos tai vihreitä nuolia, niin pääset viereisille kartoille.


METAR-TAF: